sensor_id;sensor_type;location;lat;lon;timestamp;temperature;humidity
25436;DHT22;13363;52.772;-3.890;2023-04-03T00:01:36;5.80;99.90
25436;DHT22;13363;52.772;-3.890;2023-04-03T00:04:06;5.80;99.90
25436;DHT22;13363;52.772;-3.890;2023-04-03T00:06:32;5.60;99.90
25436;DHT22;13363;52.772;-3.890;2023-04-03T00:08:58;5.50;99.90
25436;DHT22;13363;52.772;-3.890;2023-04-03T00:11:23;5.50;99.90
25436;DHT22;13363;52.772;-3.890;2023-04-03T00:13:50;5.60;99.90
25436;DHT22;13363;52.772;-3.890;2023-04-03T00:16:16;5.50;99.90
25436;DHT22;13363;52.772;-3.890;2023-04-03T00:18:42;5.70;99.90
25436;DHT22;13363;52.772;-3.890;2023-04-03T00:21:11;5.70;99.90
25436;DHT22;13363;52.772;-3.890;2023-04-03T00:23:37;5.70;99.90
25436;DHT22;13363;52.772;-3.890;2023-04-03T00:26:03;5.70;99.90
25436;DHT22;13363;52.772;-3.890;2023-04-03T00:28:28;5.70;99.90
25436;DHT22;13363;52.772;-3.890;2023-04-03T00:30:54;5.70;99.90
25436;DHT22;13363;52.772;-3.890;2023-04-03T00:33:20;5.60;99.90
25436;DHT22;13363;52.772;-3.890;2023-04-03T00:35:48;5.50;99.90
25436;DHT22;13363;52.772;-3.890;2023-04-03T00:38:14;5.50;99.90
25436;DHT22;13363;52.772;-3.890;2023-04-03T00:40:43;5.50;99.90
25436;DHT22;13363;52.772;-3.890;2023-04-03T00:43:15;5.70;99.90
25436;DHT22;13363;52.772;-3.890;2023-04-03T00:45:44;5.60;99.90
25436;DHT22;13363;52.772;-3.890;2023-04-03T00:48:14;5.60;99.90
25436;DHT22;13363;52.772;-3.890;2023-04-03T00:50:44;5.50;99.90
25436;DHT22;13363;52.772;-3.890;2023-04-03T00:53:21;5.70;99.90
25436;DHT22;13363;52.772;-3.890;2023-04-03T00:55:49;5.70;99.90
25436;DHT22;13363;52.772;-3.890;2023-04-03T00:58:18;5.60;99.90
25436;DHT22;13363;52.772;-3.890;2023-04-03T01:00:50;5.70;99.90
25436;DHT22;13363;52.772;-3.890;2023-04-03T01:03:21;5.60;99.90
25436;DHT22;13363;52.772;-3.890;2023-04-03T01:05:47;5.50;99.90
25436;DHT22;13363;52.772;-3.890;2023-04-03T01:08:12;5.30;99.90
25436;DHT22;13363;52.772;-3.890;2023-04-03T01:10:38;5.20;99.90
25436;DHT22;13363;52.772;-3.890;2023-04-03T01:13:19;5.20;99.90
25436;DHT22;13363;52.772;-3.890;2023-04-03T01:15:45;5.30;99.90
25436;DHT22;13363;52.772;-3.890;2023-04-03T01:18:11;5.40;99.90
25436;DHT22;13363;52.772;-3.890;2023-04-03T01:26:24;5.30;99.90
25436;DHT22;13363;52.772;-3.890;2023-04-03T01:28:53;5.30;99.90
25436;DHT22;13363;52.772;-3.890;2023-04-03T01:34:33;5.40;99.90
25436;DHT22;13363;52.772;-3.890;2023-04-03T01:36:59;5.70;99.90
25436;DHT22;13363;52.772;-3.890;2023-04-03T01:39:24;5.60;99.90
25436;DHT22;13363;52.772;-3.890;2023-04-03T01:41:50;5.40;99.90
25436;DHT22;13363;52.772;-3.890;2023-04-03T01:44:16;5.30;99.90
25436;DHT22;13363;52.772;-3.890;2023-04-03T01:46:41;5.30;99.90
25436;DHT22;13363;52.772;-3.890;2023-04-03T01:49:07;5.20;99.90
25436;DHT22;13363;52.772;-3.890;2023-04-03T01:51:33;5.20;99.90
25436;DHT22;13363;52.772;-3.890;2023-04-03T01:54:00;5.10;99.90
25436;DHT22;13363;52.772;-3.890;2023-04-03T01:56:26;5.00;99.90
25436;DHT22;13363;52.772;-3.890;2023-04-03T01:58:52;5.20;99.90
25436;DHT22;13363;52.772;-3.890;2023-04-03T02:01:17;5.10;99.90
25436;DHT22;13363;52.772;-3.890;2023-04-03T02:03:43;5.00;99.90
25436;DHT22;13363;52.772;-3.890;2023-04-03T02:06:09;5.10;99.90
25436;DHT22;13363;52.772;-3.890;2023-04-03T02:08:34;5.20;99.90
25436;DHT22;13363;52.772;-3.890;2023-04-03T02:11:00;5.40;99.90
25436;DHT22;13363;52.772;-3.890;2023-04-03T02:13:26;5.40;99.90
25436;DHT22;13363;52.772;-3.890;2023-04-03T02:15:52;5.20;99.90
25436;DHT22;13363;52.772;-3.890;2023-04-03T02:18:18;5.30;99.90
25436;DHT22;13363;52.772;-3.890;2023-04-03T02:20:43;5.50;99.90
25436;DHT22;13363;52.772;-3.890;2023-04-03T02:23:09;5.70;99.90
25436;DHT22;13363;52.772;-3.890;2023-04-03T02:25:35;5.80;99.90
25436;DHT22;13363;52.772;-3.890;2023-04-03T02:28:01;6.00;99.90
25436;DHT22;13363;52.772;-3.890;2023-04-03T02:30:27;6.00;99.90
25436;DHT22;13363;52.772;-3.890;2023-04-03T02:32:52;5.90;99.90
25436;DHT22;13363;52.772;-3.890;2023-04-03T02:35:18;5.70;99.90
25436;DHT22;13363;52.772;-3.890;2023-04-03T02:37:44;5.70;99.90
25436;DHT22;13363;52.772;-3.890;2023-04-03T02:40:10;5.50;99.90
25436;DHT22;13363;52.772;-3.890;2023-04-03T02:42:36;5.50;99.90
25436;DHT22;13363;52.772;-3.890;2023-04-03T02:45:02;5.30;99.90
25436;DHT22;13363;52.772;-3.890;2023-04-03T02:47:28;5.20;99.90
25436;DHT22;13363;52.772;-3.890;2023-04-03T02:49:54;5.20;99.90
25436;DHT22;13363;52.772;-3.890;2023-04-03T02:52:20;5.00;99.90
25436;DHT22;13363;52.772;-3.890;2023-04-03T02:54:46;5.00;99.90
25436;DHT22;13363;52.772;-3.890;2023-04-03T02:57:12;4.90;99.90
25436;DHT22;13363;52.772;-3.890;2023-04-03T02:59:38;4.70;99.90
25436;DHT22;13363;52.772;-3.890;2023-04-03T03:02:10;4.60;99.90
25436;DHT22;13363;52.772;-3.890;2023-04-03T03:04:36;4.60;99.90
25436;DHT22;13363;52.772;-3.890;2023-04-03T03:07:02;4.40;99.90
25436;DHT22;13363;52.772;-3.890;2023-04-03T03:09:28;4.30;99.90
25436;DHT22;13363;52.772;-3.890;2023-04-03T03:11:55;4.30;99.90
25436;DHT22;13363;52.772;-3.890;2023-04-03T03:14:20;4.30;99.90
25436;DHT22;13363;52.772;-3.890;2023-04-03T03:16:46;4.40;99.90
25436;DHT22;13363;52.772;-3.890;2023-04-03T03:19:12;4.40;99.90
25436;DHT22;13363;52.772;-3.890;2023-04-03T03:21:37;4.30;99.90
25436;DHT22;13363;52.772;-3.890;2023-04-03T03:24:03;4.50;99.90
25436;DHT22;13363;52.772;-3.890;2023-04-03T03:26:29;4.40;99.90
25436;DHT22;13363;52.772;-3.890;2023-04-03T03:28:55;4.30;99.90
25436;DHT22;13363;52.772;-3.890;2023-04-03T03:31:20;4.30;99.90
25436;DHT22;13363;52.772;-3.890;2023-04-03T03:33:46;4.20;99.90
25436;DHT22;13363;52.772;-3.890;2023-04-03T03:36:12;4.20;99.90
25436;DHT22;13363;52.772;-3.890;2023-04-03T03:38:38;4.10;99.90
25436;DHT22;13363;52.772;-3.890;2023-04-03T03:41:03;4.10;99.90
25436;DHT22;13363;52.772;-3.890;2023-04-03T03:43:29;4.10;99.90
25436;DHT22;13363;52.772;-3.890;2023-04-03T03:45:55;3.90;99.90
25436;DHT22;13363;52.772;-3.890;2023-04-03T03:48:21;3.80;99.90
25436;DHT22;13363;52.772;-3.890;2023-04-03T03:50:47;3.80;99.90
25436;DHT22;13363;52.772;-3.890;2023-04-03T03:53:13;3.90;99.90
25436;DHT22;13363;52.772;-3.890;2023-04-03T03:55:39;3.80;99.90
25436;DHT22;13363;52.772;-3.890;2023-04-03T03:58:04;3.80;99.90
25436;DHT22;13363;52.772;-3.890;2023-04-03T04:00:30;3.80;99.90
25436;DHT22;13363;52.772;-3.890;2023-04-03T04:02:56;3.80;99.90
25436;DHT22;13363;52.772;-3.890;2023-04-03T04:05:22;3.70;99.90
25436;DHT22;13363;52.772;-3.890;2023-04-03T04:07:48;3.70;99.90
25436;DHT22;13363;52.772;-3.890;2023-04-03T04:10:14;3.70;99.90
25436;DHT22;13363;52.772;-3.890;2023-04-03T04:12:40;3.80;99.90
25436;DHT22;13363;52.772;-3.890;2023-04-03T04:15:06;3.80;99.90
25436;DHT22;13363;52.772;-3.890;2023-04-03T04:17:32;3.80;99.90
25436;DHT22;13363;52.772;-3.890;2023-04-03T04:19:57;3.70;99.90
25436;DHT22;13363;52.772;-3.890;2023-04-03T04:22:23;3.70;99.90
25436;DHT22;13363;52.772;-3.890;2023-04-03T04:24:49;3.60;99.90
25436;DHT22;13363;52.772;-3.890;2023-04-03T04:27:14;3.70;99.90
25436;DHT22;13363;52.772;-3.890;2023-04-03T04:29:41;3.70;99.90
25436;DHT22;13363;52.772;-3.890;2023-04-03T04:32:07;4.00;99.90
25436;DHT22;13363;52.772;-3.890;2023-04-03T04:34:33;4.00;99.90
25436;DHT22;13363;52.772;-3.890;2023-04-03T04:36:58;4.30;99.90
25436;DHT22;13363;52.772;-3.890;2023-04-03T04:39:24;4.30;99.90
25436;DHT22;13363;52.772;-3.890;2023-04-03T04:41:49;4.20;99.90
25436;DHT22;13363;52.772;-3.890;2023-04-03T04:44:15;3.80;99.90
25436;DHT22;13363;52.772;-3.890;2023-04-03T04:46:41;3.90;99.90
25436;DHT22;13363;52.772;-3.890;2023-04-03T04:49:07;3.90;99.90
25436;DHT22;13363;52.772;-3.890;2023-04-03T04:51:32;3.80;99.90
25436;DHT22;13363;52.772;-3.890;2023-04-03T04:53:58;3.80;99.90
25436;DHT22;13363;52.772;-3.890;2023-04-03T04:56:24;3.80;99.90
25436;DHT22;13363;52.772;-3.890;2023-04-03T04:58:50;3.60;99.90
25436;DHT22;13363;52.772;-3.890;2023-04-03T05:01:16;3.60;99.90
25436;DHT22;13363;52.772;-3.890;2023-04-03T05:03:42;3.70;99.90
25436;DHT22;13363;52.772;-3.890;2023-04-03T05:06:07;3.70;99.90
25436;DHT22;13363;52.772;-3.890;2023-04-03T05:08:33;3.90;99.90
25436;DHT22;13363;52.772;-3.890;2023-04-03T05:10:59;4.00;99.90
25436;DHT22;13363;52.772;-3.890;2023-04-03T05:13:24;4.00;99.90
25436;DHT22;13363;52.772;-3.890;2023-04-03T05:15:50;3.90;99.90
25436;DHT22;13363;52.772;-3.890;2023-04-03T05:18:16;3.70;99.90
25436;DHT22;13363;52.772;-3.890;2023-04-03T05:20:41;3.50;99.90
25436;DHT22;13363;52.772;-3.890;2023-04-03T05:23:09;3.50;99.90
25436;DHT22;13363;52.772;-3.890;2023-04-03T05:25:37;3.40;99.90
25436;DHT22;13363;52.772;-3.890;2023-04-03T05:28:03;3.50;99.90
25436;DHT22;13363;52.772;-3.890;2023-04-03T05:30:29;3.30;99.90
25436;DHT22;13363;52.772;-3.890;2023-04-03T05:32:54;3.20;99.90
25436;DHT22;13363;52.772;-3.890;2023-04-03T05:35:21;3.10;99.90
25436;DHT22;13363;52.772;-3.890;2023-04-03T05:37:46;3.10;99.90
25436;DHT22;13363;52.772;-3.890;2023-04-03T05:40:12;3.10;99.90
25436;DHT22;13363;52.772;-3.890;2023-04-03T05:42:38;3.00;99.90
25436;DHT22;13363;52.772;-3.890;2023-04-03T05:45:04;2.80;99.90
25436;DHT22;13363;52.772;-3.890;2023-04-03T05:47:30;3.00;99.90
25436;DHT22;13363;52.772;-3.890;2023-04-03T05:49:56;2.90;99.90
25436;DHT22;13363;52.772;-3.890;2023-04-03T05:52:30;2.80;99.90
25436;DHT22;13363;52.772;-3.890;2023-04-03T05:54:57;2.90;99.90
25436;DHT22;13363;52.772;-3.890;2023-04-03T05:57:23;2.80;99.90
25436;DHT22;13363;52.772;-3.890;2023-04-03T05:59:49;2.80;99.90
25436;DHT22;13363;52.772;-3.890;2023-04-03T06:02:21;2.90;99.90
25436;DHT22;13363;52.772;-3.890;2023-04-03T06:04:47;3.00;99.90
25436;DHT22;13363;52.772;-3.890;2023-04-03T06:07:21;3.00;99.90
25436;DHT22;13363;52.772;-3.890;2023-04-03T06:09:49;2.90;99.90
25436;DHT22;13363;52.772;-3.890;2023-04-03T06:12:15;2.90;99.90
25436;DHT22;13363;52.772;-3.890;2023-04-03T06:14:40;2.90;99.90
25436;DHT22;13363;52.772;-3.890;2023-04-03T06:17:06;2.80;99.90
25436;DHT22;13363;52.772;-3.890;2023-04-03T06:19:33;3.00;99.90
25436;DHT22;13363;52.772;-3.890;2023-04-03T06:21:59;3.00;99.90
25436;DHT22;13363;52.772;-3.890;2023-04-03T06:24:25;3.10;99.90
25436;DHT22;13363;52.772;-3.890;2023-04-03T06:26:51;3.00;99.90
25436;DHT22;13363;52.772;-3.890;2023-04-03T06:29:18;3.10;99.90
25436;DHT22;13363;52.772;-3.890;2023-04-03T06:31:45;3.00;99.90
25436;DHT22;13363;52.772;-3.890;2023-04-03T06:34:11;3.10;99.90
25436;DHT22;13363;52.772;-3.890;2023-04-03T06:36:38;3.30;99.90
25436;DHT22;13363;52.772;-3.890;2023-04-03T06:39:04;3.20;99.90
25436;DHT22;13363;52.772;-3.890;2023-04-03T06:41:31;3.20;99.90
25436;DHT22;13363;52.772;-3.890;2023-04-03T06:43:56;3.10;99.90
25436;DHT22;13363;52.772;-3.890;2023-04-03T06:46:24;3.10;99.90
25436;DHT22;13363;52.772;-3.890;2023-04-03T06:48:50;3.30;99.90
25436;DHT22;13363;52.772;-3.890;2023-04-03T06:51:25;3.20;99.90
25436;DHT22;13363;52.772;-3.890;2023-04-03T06:53:53;3.30;99.90
25436;DHT22;13363;52.772;-3.890;2023-04-03T06:56:19;3.30;99.90
25436;DHT22;13363;52.772;-3.890;2023-04-03T06:58:45;3.30;99.90
25436;DHT22;13363;52.772;-3.890;2023-04-03T07:01:12;3.30;99.90
25436;DHT22;13363;52.772;-3.890;2023-04-03T07:03:38;3.30;99.90
25436;DHT22;13363;52.772;-3.890;2023-04-03T07:06:05;3.40;99.90
25436;DHT22;13363;52.772;-3.890;2023-04-03T07:08:33;3.50;99.90
25436;DHT22;13363;52.772;-3.890;2023-04-03T07:10:59;3.40;99.90
25436;DHT22;13363;52.772;-3.890;2023-04-03T07:13:25;3.40;99.90
25436;DHT22;13363;52.772;-3.890;2023-04-03T07:15:51;3.50;99.90
25436;DHT22;13363;52.772;-3.890;2023-04-03T07:18:16;3.60;99.90
25436;DHT22;13363;52.772;-3.890;2023-04-03T07:20:42;3.70;99.90
25436;DHT22;13363;52.772;-3.890;2023-04-03T07:23:08;3.70;99.90
25436;DHT22;13363;52.772;-3.890;2023-04-03T07:25:34;3.90;99.90
25436;DHT22;13363;52.772;-3.890;2023-04-03T07:28:00;4.70;99.90
25436;DHT22;13363;52.772;-3.890;2023-04-03T07:30:26;6.40;99.90
25436;DHT22;13363;52.772;-3.890;2023-04-03T07:32:52;8.10;99.90
25436;DHT22;13363;52.772;-3.890;2023-04-03T07:35:18;9.30;99.90
25436;DHT22;13363;52.772;-3.890;2023-04-03T07:37:44;10.20;99.90
25436;DHT22;13363;52.772;-3.890;2023-04-03T07:40:10;11.40;99.90
25436;DHT22;13363;52.772;-3.890;2023-04-03T07:42:36;12.70;99.90
25436;DHT22;13363;52.772;-3.890;2023-04-03T07:45:03;12.70;99.90
25436;DHT22;13363;52.772;-3.890;2023-04-03T07:47:30;12.90;99.90
25436;DHT22;13363;52.772;-3.890;2023-04-03T07:49:57;13.50;99.90
25436;DHT22;13363;52.772;-3.890;2023-04-03T07:52:23;14.50;99.90
25436;DHT22;13363;52.772;-3.890;2023-04-03T07:54:49;14.70;99.90
25436;DHT22;13363;52.772;-3.890;2023-04-03T07:57:15;15.10;99.90
25436;DHT22;13363;52.772;-3.890;2023-04-03T07:59:41;15.40;99.90
25436;DHT22;13363;52.772;-3.890;2023-04-03T08:02:13;16.20;99.90
25436;DHT22;13363;52.772;-3.890;2023-04-03T08:04:39;17.20;99.90
25436;DHT22;13363;52.772;-3.890;2023-04-03T08:07:05;17.30;99.90
25436;DHT22;13363;52.772;-3.890;2023-04-03T08:09:31;17.90;99.90
25436;DHT22;13363;52.772;-3.890;2023-04-03T08:11:57;18.00;99.90
25436;DHT22;13363;52.772;-3.890;2023-04-03T08:14:23;16.80;99.90
25436;DHT22;13363;52.772;-3.890;2023-04-03T08:16:49;16.90;99.90
25436;DHT22;13363;52.772;-3.890;2023-04-03T08:19:15;16.50;99.90
25436;DHT22;13363;52.772;-3.890;2023-04-03T08:21:44;16.70;99.90
25436;DHT22;13363;52.772;-3.890;2023-04-03T08:24:11;16.80;99.90
25436;DHT22;13363;52.772;-3.890;2023-04-03T08:26:37;17.40;99.90
25436;DHT22;13363;52.772;-3.890;2023-04-03T08:29:03;17.80;99.90
25436;DHT22;13363;52.772;-3.890;2023-04-03T08:31:28;18.00;99.90
25436;DHT22;13363;52.772;-3.890;2023-04-03T08:33:56;18.30;99.90
25436;DHT22;13363;52.772;-3.890;2023-04-03T08:36:26;18.30;99.90
25436;DHT22;13363;52.772;-3.890;2023-04-03T08:38:54;18.40;99.90
25436;DHT22;13363;52.772;-3.890;2023-04-03T08:41:33;18.50;99.90
25436;DHT22;13363;52.772;-3.890;2023-04-03T08:52:17;17.30;99.90
25436;DHT22;13363;52.772;-3.890;2023-04-03T08:54:55;17.80;99.90
25436;DHT22;13363;52.772;-3.890;2023-04-03T08:57:31;18.80;99.90
25436;DHT22;13363;52.772;-3.890;2023-04-03T09:00:07;19.20;99.90
25436;DHT22;13363;52.772;-3.890;2023-04-03T09:02:51;19.20;99.90
25436;DHT22;13363;52.772;-3.890;2023-04-03T09:05:24;16.70;99.90
25436;DHT22;13363;52.772;-3.890;2023-04-03T09:08:41;15.80;99.90
25436;DHT22;13363;52.772;-3.890;2023-04-03T09:11:21;15.20;99.90
25436;DHT22;13363;52.772;-3.890;2023-04-03T09:14:02;15.20;99.90
25436;DHT22;13363;52.772;-3.890;2023-04-03T09:16:52;14.90;99.90
25436;DHT22;13363;52.772;-3.890;2023-04-03T09:22:24;14.50;99.90
25436;DHT22;13363;52.772;-3.890;2023-04-03T09:25:00;14.60;99.90
25436;DHT22;13363;52.772;-3.890;2023-04-03T09:27:27;14.40;99.90
25436;DHT22;13363;52.772;-3.890;2023-04-03T09:29:56;14.50;99.90
25436;DHT22;13363;52.772;-3.890;2023-04-03T09:34:53;13.00;99.90
25436;DHT22;13363;52.772;-3.890;2023-04-03T09:37:41;11.40;99.90
25436;DHT22;13363;52.772;-3.890;2023-04-03T09:43:00;12.90;99.90
25436;DHT22;13363;52.772;-3.890;2023-04-03T09:45:34;12.70;99.90
25436;DHT22;13363;52.772;-3.890;2023-04-03T09:53:42;15.50;99.90
25436;DHT22;13363;52.772;-3.890;2023-04-03T09:56:24;16.10;99.90
25436;DHT22;13363;52.772;-3.890;2023-04-03T10:01:35;15.60;99.90
25436;DHT22;13363;52.772;-3.890;2023-04-03T10:04:19;16.20;99.90
25436;DHT22;13363;52.772;-3.890;2023-04-03T10:06:54;16.00;99.90
25436;DHT22;13363;52.772;-3.890;2023-04-03T10:09:26;16.00;99.90
25436;DHT22;13363;52.772;-3.890;2023-04-03T10:12:06;15.30;99.90
25436;DHT22;13363;52.772;-3.890;2023-04-03T10:14:40;15.20;99.90
25436;DHT22;13363;52.772;-3.890;2023-04-03T10:20:30;15.90;99.90
25436;DHT22;13363;52.772;-3.890;2023-04-03T10:26:09;16.00;99.90
25436;DHT22;13363;52.772;-3.890;2023-04-03T10:29:09;16.10;99.90
25436;DHT22;13363;52.772;-3.890;2023-04-03T10:34:35;16.10;99.90
25436;DHT22;13363;52.772;-3.890;2023-04-03T10:43:14;16.90;99.90
25436;DHT22;13363;52.772;-3.890;2023-04-03T10:51:41;15.80;99.90
25436;DHT22;13363;52.772;-3.890;2023-04-03T10:54:11;16.20;99.90
25436;DHT22;13363;52.772;-3.890;2023-04-03T10:56:47;15.80;99.90
25436;DHT22;13363;52.772;-3.890;2023-04-03T11:01:41;16.20;99.90
25436;DHT22;13363;52.772;-3.890;2023-04-03T11:04:10;16.20;99.90
25436;DHT22;13363;52.772;-3.890;2023-04-03T11:06:41;16.00;99.90
25436;DHT22;13363;52.772;-3.890;2023-04-03T11:09:35;15.60;99.90
25436;DHT22;13363;52.772;-3.890;2023-04-03T11:14:56;16.20;99.90
25436;DHT22;13363;52.772;-3.890;2023-04-03T11:17:37;16.40;99.90
25436;DHT22;13363;52.772;-3.890;2023-04-03T11:22:47;16.00;99.90
25436;DHT22;13363;52.772;-3.890;2023-04-03T11:25:22;15.90;99.90
25436;DHT22;13363;52.772;-3.890;2023-04-03T11:27:58;15.60;99.90
25436;DHT22;13363;52.772;-3.890;2023-04-03T11:30:39;15.10;99.90
25436;DHT22;13363;52.772;-3.890;2023-04-03T11:36:12;14.60;99.90
25436;DHT22;13363;52.772;-3.890;2023-04-03T11:38:44;14.60;99.90
25436;DHT22;13363;52.772;-3.890;2023-04-03T11:41:13;15.30;99.90
25436;DHT22;13363;52.772;-3.890;2023-04-03T11:46:56;16.40;99.90
25436;DHT22;13363;52.772;-3.890;2023-04-03T11:49:57;17.00;99.90
25436;DHT22;13363;52.772;-3.890;2023-04-03T11:52:57;17.40;99.90
25436;DHT22;13363;52.772;-3.890;2023-04-03T12:05:56;16.70;99.90
25436;DHT22;13363;52.772;-3.890;2023-04-03T12:16:27;15.20;99.90
25436;DHT22;13363;52.772;-3.890;2023-04-03T12:21:51;15.50;99.90
25436;DHT22;13363;52.772;-3.890;2023-04-03T12:26:46;16.10;99.90
25436;DHT22;13363;52.772;-3.890;2023-04-03T12:29:38;16.50;99.90
25436;DHT22;13363;52.772;-3.890;2023-04-03T12:46:48;17.00;99.90
25436;DHT22;13363;52.772;-3.890;2023-04-03T12:51:57;16.30;99.90
25436;DHT22;13363;52.772;-3.890;2023-04-03T12:54:41;15.90;99.90
25436;DHT22;13363;52.772;-3.890;2023-04-03T12:57:21;15.20;99.90
25436;DHT22;13363;52.772;-3.890;2023-04-03T12:59:47;15.70;99.90
25436;DHT22;13363;52.772;-3.890;2023-04-03T13:02:28;15.70;99.90
25436;DHT22;13363;52.772;-3.890;2023-04-03T13:05:07;15.70;99.90
25436;DHT22;13363;52.772;-3.890;2023-04-03T13:07:37;15.90;99.90
25436;DHT22;13363;52.772;-3.890;2023-04-03T13:12:44;15.10;99.90
25436;DHT22;13363;52.772;-3.890;2023-04-03T13:17:44;16.00;99.90
25436;DHT22;13363;52.772;-3.890;2023-04-03T13:20:31;16.20;99.90
25436;DHT22;13363;52.772;-3.890;2023-04-03T13:23:05;16.50;99.90
25436;DHT22;13363;52.772;-3.890;2023-04-03T13:25:36;16.70;99.90
25436;DHT22;13363;52.772;-3.890;2023-04-03T13:28:04;16.50;99.90
25436;DHT22;13363;52.772;-3.890;2023-04-03T13:30:33;16.40;99.90
25436;DHT22;13363;52.772;-3.890;2023-04-03T13:33:03;16.30;99.90
25436;DHT22;13363;52.772;-3.890;2023-04-03T13:35:37;15.70;99.90
25436;DHT22;13363;52.772;-3.890;2023-04-03T13:38:23;16.10;99.90
25436;DHT22;13363;52.772;-3.890;2023-04-03T13:40:54;16.40;99.90
25436;DHT22;13363;52.772;-3.890;2023-04-03T13:43:24;16.50;99.90
25436;DHT22;13363;52.772;-3.890;2023-04-03T13:48:44;16.30;99.90
25436;DHT22;13363;52.772;-3.890;2023-04-03T13:54:16;16.20;99.90
25436;DHT22;13363;52.772;-3.890;2023-04-03T13:56:36;16.50;99.90
25436;DHT22;13363;52.772;-3.890;2023-04-03T14:04:27;17.10;99.90
25436;DHT22;13363;52.772;-3.890;2023-04-03T14:06:55;17.00;99.90
25436;DHT22;13363;52.772;-3.890;2023-04-03T14:09:23;17.00;99.90
25436;DHT22;13363;52.772;-3.890;2023-04-03T14:11:52;17.10;99.90
25436;DHT22;13363;52.772;-3.890;2023-04-03T14:14:26;16.40;99.90
25436;DHT22;13363;52.772;-3.890;2023-04-03T14:16:54;16.20;99.90
25436;DHT22;13363;52.772;-3.890;2023-04-03T14:19:24;16.40;99.90
25436;DHT22;13363;52.772;-3.890;2023-04-03T14:21:52;16.60;99.90
25436;DHT22;13363;52.772;-3.890;2023-04-03T14:24:19;16.10;99.90
25436;DHT22;13363;52.772;-3.890;2023-04-03T14:26:46;15.80;99.90
25436;DHT22;13363;52.772;-3.890;2023-04-03T14:29:12;15.70;99.90
25436;DHT22;13363;52.772;-3.890;2023-04-03T14:31:41;16.10;99.90
25436;DHT22;13363;52.772;-3.890;2023-04-03T14:34:07;16.20;99.90
25436;DHT22;13363;52.772;-3.890;2023-04-03T14:36:33;16.30;99.90
25436;DHT22;13363;52.772;-3.890;2023-04-03T14:38:59;16.50;99.90
25436;DHT22;13363;52.772;-3.890;2023-04-03T14:41:27;16.40;99.90
25436;DHT22;13363;52.772;-3.890;2023-04-03T14:43:53;16.10;99.90
25436;DHT22;13363;52.772;-3.890;2023-04-03T14:46:29;16.10;99.90
25436;DHT22;13363;52.772;-3.890;2023-04-03T14:48:55;16.10;99.90
25436;DHT22;13363;52.772;-3.890;2023-04-03T14:51:20;16.00;99.90
25436;DHT22;13363;52.772;-3.890;2023-04-03T14:53:47;15.90;99.90
25436;DHT22;13363;52.772;-3.890;2023-04-03T14:56:27;15.80;99.90
25436;DHT22;13363;52.772;-3.890;2023-04-03T14:58:58;15.80;99.90
25436;DHT22;13363;52.772;-3.890;2023-04-03T15:01:25;15.80;99.90
25436;DHT22;13363;52.772;-3.890;2023-04-03T15:03:52;15.80;99.90
25436;DHT22;13363;52.772;-3.890;2023-04-03T15:06:18;15.70;99.90
25436;DHT22;13363;52.772;-3.890;2023-04-03T15:08:45;15.60;99.90
25436;DHT22;13363;52.772;-3.890;2023-04-03T15:11:13;15.20;99.90
25436;DHT22;13363;52.772;-3.890;2023-04-03T15:13:39;14.90;99.90
25436;DHT22;13363;52.772;-3.890;2023-04-03T15:16:17;15.10;99.90
25436;DHT22;13363;52.772;-3.890;2023-04-03T15:18:44;15.30;99.90
25436;DHT22;13363;52.772;-3.890;2023-04-03T15:21:11;15.60;99.90
25436;DHT22;13363;52.772;-3.890;2023-04-03T15:23:36;15.80;99.90
25436;DHT22;13363;52.772;-3.890;2023-04-03T15:26:03;15.80;99.90
25436;DHT22;13363;52.772;-3.890;2023-04-03T15:28:39;15.80;99.90
25436;DHT22;13363;52.772;-3.890;2023-04-03T15:31:06;15.60;99.90
25436;DHT22;13363;52.772;-3.890;2023-04-03T15:33:34;15.50;99.90
25436;DHT22;13363;52.772;-3.890;2023-04-03T15:36:00;15.30;99.90
25436;DHT22;13363;52.772;-3.890;2023-04-03T15:38:25;15.30;99.90
25436;DHT22;13363;52.772;-3.890;2023-04-03T15:40:51;15.30;99.90
25436;DHT22;13363;52.772;-3.890;2023-04-03T15:43:17;15.40;99.90
25436;DHT22;13363;52.772;-3.890;2023-04-03T15:45:43;15.40;99.90
25436;DHT22;13363;52.772;-3.890;2023-04-03T15:48:10;15.40;99.90
25436;DHT22;13363;52.772;-3.890;2023-04-03T15:50:36;15.30;99.90
25436;DHT22;13363;52.772;-3.890;2023-04-03T15:53:02;15.40;99.90
25436;DHT22;13363;52.772;-3.890;2023-04-03T15:55:30;15.30;99.90
25436;DHT22;13363;52.772;-3.890;2023-04-03T15:57:56;15.20;99.90
25436;DHT22;13363;52.772;-3.890;2023-04-03T16:00:23;15.20;99.90
25436;DHT22;13363;52.772;-3.890;2023-04-03T16:02:56;15.30;99.90
25436;DHT22;13363;52.772;-3.890;2023-04-03T16:05:23;15.20;99.90
25436;DHT22;13363;52.772;-3.890;2023-04-03T16:07:49;15.20;99.90
25436;DHT22;13363;52.772;-3.890;2023-04-03T16:10:17;15.20;99.90
25436;DHT22;13363;52.772;-3.890;2023-04-03T16:12:43;15.20;99.90
25436;DHT22;13363;52.772;-3.890;2023-04-03T16:15:10;15.10;99.90
25436;DHT22;13363;52.772;-3.890;2023-04-03T16:17:37;15.10;99.90
25436;DHT22;13363;52.772;-3.890;2023-04-03T16:20:05;15.10;99.90
25436;DHT22;13363;52.772;-3.890;2023-04-03T16:22:32;15.10;99.90
25436;DHT22;13363;52.772;-3.890;2023-04-03T16:24:58;15.20;99.90
25436;DHT22;13363;52.772;-3.890;2023-04-03T16:27:24;15.10;99.90
25436;DHT22;13363;52.772;-3.890;2023-04-03T16:29:54;15.00;99.90
25436;DHT22;13363;52.772;-3.890;2023-04-03T16:32:20;14.90;99.90
25436;DHT22;13363;52.772;-3.890;2023-04-03T16:34:47;14.80;99.90
25436;DHT22;13363;52.772;-3.890;2023-04-03T16:37:12;14.70;99.90
25436;DHT22;13363;52.772;-3.890;2023-04-03T16:39:38;14.60;99.90
25436;DHT22;13363;52.772;-3.890;2023-04-03T16:42:04;14.50;99.90
25436;DHT22;13363;52.772;-3.890;2023-04-03T16:44:29;14.40;99.90
25436;DHT22;13363;52.772;-3.890;2023-04-03T16:46:55;14.30;99.90
25436;DHT22;13363;52.772;-3.890;2023-04-03T16:49:21;14.20;99.90
25436;DHT22;13363;52.772;-3.890;2023-04-03T16:51:48;14.20;99.90
25436;DHT22;13363;52.772;-3.890;2023-04-03T16:54:14;14.10;99.90
25436;DHT22;13363;52.772;-3.890;2023-04-03T16:56:40;14.10;99.90
25436;DHT22;13363;52.772;-3.890;2023-04-03T16:59:06;14.10;99.90
25436;DHT22;13363;52.772;-3.890;2023-04-03T17:01:32;14.00;99.90
25436;DHT22;13363;52.772;-3.890;2023-04-03T17:03:58;14.00;99.90
25436;DHT22;13363;52.772;-3.890;2023-04-03T17:06:24;14.00;99.90
25436;DHT22;13363;52.772;-3.890;2023-04-03T17:08:51;13.90;99.90
25436;DHT22;13363;52.772;-3.890;2023-04-03T17:11:17;13.90;99.90
25436;DHT22;13363;52.772;-3.890;2023-04-03T17:13:43;13.80;99.90
25436;DHT22;13363;52.772;-3.890;2023-04-03T17:16:12;13.70;99.90
25436;DHT22;13363;52.772;-3.890;2023-04-03T17:18:39;13.70;99.90
25436;DHT22;13363;52.772;-3.890;2023-04-03T17:21:06;13.60;99.90
25436;DHT22;13363;52.772;-3.890;2023-04-03T17:23:33;13.70;99.90
25436;DHT22;13363;52.772;-3.890;2023-04-03T17:26:03;13.70;99.90
25436;DHT22;13363;52.772;-3.890;2023-04-03T17:28:29;13.60;99.90
25436;DHT22;13363;52.772;-3.890;2023-04-03T17:30:59;13.50;99.90
25436;DHT22;13363;52.772;-3.890;2023-04-03T17:33:27;13.50;99.90
25436;DHT22;13363;52.772;-3.890;2023-04-03T17:36:00;13.40;99.90
25436;DHT22;13363;52.772;-3.890;2023-04-03T17:38:27;13.40;99.90